sensor_id;sensor_type;location;lat;lon;timestamp;P1;durP1;ratioP1;P2;durP2;ratioP2
5710;SDS011;61291;52.524;13.422;2022-10-16T00:01:24;58.27;;;54.37;;
5710;SDS011;61291;52.524;13.422;2022-10-16T00:03:52;60.27;;;56.23;;
5710;SDS011;61291;52.524;13.422;2022-10-16T00:06:18;60.07;;;55.83;;
5710;SDS011;61291;52.524;13.422;2022-10-16T00:08:46;59.60;;;55.70;;
5710;SDS011;61291;52.524;13.422;2022-10-16T00:11:16;52.80;;;49.20;;
5710;SDS011;61291;52.524;13.422;2022-10-16T00:13:45;60.20;;;56.10;;
5710;SDS011;61291;52.524;13.422;2022-10-16T00:16:12;58.37;;;54.40;;
5710;SDS011;61291;52.524;13.422;2022-10-16T00:18:38;61.63;;;57.30;;
5710;SDS011;61291;52.524;13.422;2022-10-16T00:21:12;57.57;;;53.77;;
5710;SDS011;61291;52.524;13.422;2022-10-16T00:23:40;57.63;;;53.80;;
5710;SDS011;61291;52.524;13.422;2022-10-16T00:26:07;65.47;;;60.80;;
5710;SDS011;61291;52.524;13.422;2022-10-16T00:28:35;56.90;;;53.00;;
5710;SDS011;61291;52.524;13.422;2022-10-16T00:31:03;57.60;;;53.77;;
5710;SDS011;61291;52.524;13.422;2022-10-16T00:33:29;62.60;;;58.60;;
5710;SDS011;61291;52.524;13.422;2022-10-16T00:35:57;58.47;;;54.40;;
5710;SDS011;61291;52.524;13.422;2022-10-16T00:38:23;59.77;;;55.50;;
5710;SDS011;61291;52.524;13.422;2022-10-16T00:40:49;64.70;;;60.40;;
5710;SDS011;61291;52.524;13.422;2022-10-16T00:43:34;58.77;;;54.97;;
5710;SDS011;61291;52.524;13.422;2022-10-16T00:46:03;61.03;;;56.57;;
5710;SDS011;61291;52.524;13.422;2022-10-16T00:48:34;59.53;;;55.30;;
5710;SDS011;61291;52.524;13.422;2022-10-16T00:51:00;63.67;;;58.90;;
5710;SDS011;61291;52.524;13.422;2022-10-16T00:53:26;51.90;;;48.50;;
5710;SDS011;61291;52.524;13.422;2022-10-16T00:55:52;60.20;;;56.30;;
5710;SDS011;61291;52.524;13.422;2022-10-16T00:58:18;58.20;;;54.40;;
5710;SDS011;61291;52.524;13.422;2022-10-16T01:00:45;62.77;;;58.57;;
5710;SDS011;61291;52.524;13.422;2022-10-16T01:03:24;61.90;;;57.80;;
5710;SDS011;61291;52.524;13.422;2022-10-16T01:05:59;60.90;;;56.60;;
5710;SDS011;61291;52.524;13.422;2022-10-16T01:08:41;60.43;;;56.40;;
5710;SDS011;61291;52.524;13.422;2022-10-16T01:11:27;59.50;;;55.53;;
5710;SDS011;61291;52.524;13.422;2022-10-16T01:14:07;61.23;;;57.33;;
5710;SDS011;61291;52.524;13.422;2022-10-16T01:16:53;61.50;;;57.60;;
5710;SDS011;61291;52.524;13.422;2022-10-16T01:22:31;60.40;;;56.30;;
5710;SDS011;61291;52.524;13.422;2022-10-16T01:25:23;63.87;;;59.77;;
5710;SDS011;61291;52.524;13.422;2022-10-16T01:27:59;61.53;;;57.10;;
5710;SDS011;61291;52.524;13.422;2022-10-16T01:30:28;61.40;;;57.30;;
5710;SDS011;61291;52.524;13.422;2022-10-16T01:32:59;65.10;;;60.70;;
5710;SDS011;61291;52.524;13.422;2022-10-16T01:38:03;60.10;;;55.60;;
5710;SDS011;61291;52.524;13.422;2022-10-16T01:40:32;60.93;;;57.03;;
5710;SDS011;61291;52.524;13.422;2022-10-16T01:43:00;62.67;;;58.77;;
5710;SDS011;61291;52.524;13.422;2022-10-16T01:45:31;61.77;;;57.60;;
5710;SDS011;61291;52.524;13.422;2022-10-16T01:47:59;62.97;;;58.87;;
5710;SDS011;61291;52.524;13.422;2022-10-16T01:50:25;65.63;;;61.50;;
5710;SDS011;61291;52.524;13.422;2022-10-16T01:52:52;60.93;;;56.80;;
5710;SDS011;61291;52.524;13.422;2022-10-16T01:55:20;61.70;;;57.80;;
5710;SDS011;61291;52.524;13.422;2022-10-16T01:57:53;61.67;;;57.60;;
5710;SDS011;61291;52.524;13.422;2022-10-16T02:00:19;61.60;;;57.60;;
5710;SDS011;61291;52.524;13.422;2022-10-16T02:02:47;62.50;;;58.30;;
5710;SDS011;61291;52.524;13.422;2022-10-16T02:07:49;60.13;;;55.63;;
5710;SDS011;61291;52.524;13.422;2022-10-16T02:10:15;63.00;;;59.00;;
5710;SDS011;61291;52.524;13.422;2022-10-16T02:12:43;58.60;;;54.70;;
5710;SDS011;61291;52.524;13.422;2022-10-16T02:15:13;62.03;;;58.13;;
5710;SDS011;61291;52.524;13.422;2022-10-16T02:17:38;62.77;;;58.57;;
5710;SDS011;61291;52.524;13.422;2022-10-16T02:20:04;60.47;;;56.67;;
5710;SDS011;61291;52.524;13.422;2022-10-16T02:22:40;60.57;;;56.67;;
5710;SDS011;61291;52.524;13.422;2022-10-16T02:25:13;66.00;;;61.60;;
5710;SDS011;61291;52.524;13.422;2022-10-16T02:30:42;58.97;;;55.27;;
5710;SDS011;61291;52.524;13.422;2022-10-16T02:33:23;58.80;;;55.17;;
5710;SDS011;61291;52.524;13.422;2022-10-16T02:35:52;58.00;;;54.17;;
5710;SDS011;61291;52.524;13.422;2022-10-16T02:38:19;62.63;;;58.63;;
5710;SDS011;61291;52.524;13.422;2022-10-16T02:40:46;61.80;;;57.90;;
5710;SDS011;61291;52.524;13.422;2022-10-16T02:43:11;60.17;;;56.13;;
5710;SDS011;61291;52.524;13.422;2022-10-16T02:45:38;60.20;;;56.10;;
5710;SDS011;61291;52.524;13.422;2022-10-16T02:48:04;67.70;;;63.50;;
5710;SDS011;61291;52.524;13.422;2022-10-16T02:50:30;59.70;;;55.87;;
5710;SDS011;61291;52.524;13.422;2022-10-16T02:52:55;60.70;;;56.63;;
5710;SDS011;61291;52.524;13.422;2022-10-16T02:55:21;63.97;;;59.73;;
5710;SDS011;61291;52.524;13.422;2022-10-16T02:57:46;61.17;;;57.10;;
5710;SDS011;61291;52.524;13.422;2022-10-16T03:00:13;61.90;;;57.20;;
5710;SDS011;61291;52.524;13.422;2022-10-16T03:02:40;60.23;;;56.13;;
5710;SDS011;61291;52.524;13.422;2022-10-16T03:05:06;62.37;;;58.17;;
5710;SDS011;61291;52.524;13.422;2022-10-16T03:07:32;58.87;;;54.87;;
5710;SDS011;61291;52.524;13.422;2022-10-16T03:09:58;55.37;;;51.67;;
5710;SDS011;61291;52.524;13.422;2022-10-16T03:12:27;59.70;;;55.80;;
5710;SDS011;61291;52.524;13.422;2022-10-16T03:14:53;61.20;;;57.20;;
5710;SDS011;61291;52.524;13.422;2022-10-16T03:17:18;59.97;;;56.13;;
5710;SDS011;61291;52.524;13.422;2022-10-16T03:19:44;61.27;;;56.77;;
5710;SDS011;61291;52.524;13.422;2022-10-16T03:22:09;61.57;;;57.27;;
5710;SDS011;61291;52.524;13.422;2022-10-16T03:24:42;59.27;;;55.47;;
5710;SDS011;61291;52.524;13.422;2022-10-16T03:27:08;62.87;;;58.47;;
5710;SDS011;61291;52.524;13.422;2022-10-16T03:29:33;60.77;;;56.77;;
5710;SDS011;61291;52.524;13.422;2022-10-16T03:31:59;61.03;;;56.83;;
5710;SDS011;61291;52.524;13.422;2022-10-16T03:34:25;60.00;;;55.63;;
5710;SDS011;61291;52.524;13.422;2022-10-16T03:36:53;61.80;;;57.70;;
5710;SDS011;61291;52.524;13.422;2022-10-16T03:39:18;60.87;;;55.80;;
5710;SDS011;61291;52.524;13.422;2022-10-16T03:41:44;62.50;;;57.50;;
5710;SDS011;61291;52.524;13.422;2022-10-16T03:44:11;60.17;;;55.22;;
5710;SDS011;61291;52.524;13.422;2022-10-16T03:46:37;59.20;;;55.30;;
5710;SDS011;61291;52.524;13.422;2022-10-16T03:49:02;60.13;;;55.17;;
5710;SDS011;61291;52.524;13.422;2022-10-16T03:51:28;57.83;;;54.23;;
5710;SDS011;61291;52.524;13.422;2022-10-16T03:53:53;59.60;;;55.67;;
5710;SDS011;61291;52.524;13.422;2022-10-16T03:56:19;60.20;;;56.30;;
5710;SDS011;61291;52.524;13.422;2022-10-16T03:58:44;57.77;;;54.17;;
5710;SDS011;61291;52.524;13.422;2022-10-16T04:01:10;59.97;;;55.67;;
5710;SDS011;61291;52.524;13.422;2022-10-16T04:03:35;58.10;;;53.87;;
5710;SDS011;61291;52.524;13.422;2022-10-16T04:06:01;57.50;;;53.80;;
5710;SDS011;61291;52.524;13.422;2022-10-16T04:08:26;57.53;;;53.53;;
5710;SDS011;61291;52.524;13.422;2022-10-16T04:10:52;60.03;;;56.23;;
5710;SDS011;61291;52.524;13.422;2022-10-16T04:13:18;59.23;;;55.27;;
5710;SDS011;61291;52.524;13.422;2022-10-16T04:15:44;59.73;;;55.60;;
5710;SDS011;61291;52.524;13.422;2022-10-16T04:18:10;59.13;;;55.27;;
5710;SDS011;61291;52.524;13.422;2022-10-16T04:20:36;56.90;;;53.40;;
5710;SDS011;61291;52.524;13.422;2022-10-16T04:23:01;57.40;;;53.80;;
5710;SDS011;61291;52.524;13.422;2022-10-16T04:25:27;56.00;;;52.40;;
5710;SDS011;61291;52.524;13.422;2022-10-16T04:27:52;60.70;;;56.90;;
5710;SDS011;61291;52.524;13.422;2022-10-16T04:30:19;60.00;;;56.00;;
5710;SDS011;61291;52.524;13.422;2022-10-16T04:32:47;59.57;;;55.87;;
5710;SDS011;61291;52.524;13.422;2022-10-16T04:35:14;58.53;;;54.47;;
5710;SDS011;61291;52.524;13.422;2022-10-16T04:37:40;59.00;;;55.30;;
5710;SDS011;61291;52.524;13.422;2022-10-16T04:40:05;64.50;;;60.40;;
5710;SDS011;61291;52.524;13.422;2022-10-16T04:42:31;57.60;;;54.10;;
5710;SDS011;61291;52.524;13.422;2022-10-16T04:44:57;60.70;;;56.70;;
5710;SDS011;61291;52.524;13.422;2022-10-16T04:47:22;58.00;;;54.20;;
5710;SDS011;61291;52.524;13.422;2022-10-16T04:49:48;64.20;;;59.50;;
5710;SDS011;61291;52.524;13.422;2022-10-16T04:52:13;56.93;;;53.37;;
5710;SDS011;61291;52.524;13.422;2022-10-16T04:54:39;59.20;;;55.33;;
5710;SDS011;61291;52.524;13.422;2022-10-16T04:57:04;79.80;;;72.90;;
5710;SDS011;61291;52.524;13.422;2022-10-16T04:59:30;59.27;;;55.20;;
5710;SDS011;61291;52.524;13.422;2022-10-16T05:01:55;61.13;;;56.90;;
5710;SDS011;61291;52.524;13.422;2022-10-16T05:04:21;62.90;;;58.60;;
5710;SDS011;61291;52.524;13.422;2022-10-16T05:06:47;63.57;;;58.50;;
5710;SDS011;61291;52.524;13.422;2022-10-16T05:09:12;61.20;;;56.33;;
5710;SDS011;61291;52.524;13.422;2022-10-16T05:11:38;58.33;;;54.63;;
5710;SDS011;61291;52.524;13.422;2022-10-16T05:14:03;58.67;;;54.97;;
5710;SDS011;61291;52.524;13.422;2022-10-16T05:16:29;57.37;;;53.67;;
5710;SDS011;61291;52.524;13.422;2022-10-16T05:18:55;57.63;;;53.80;;
5710;SDS011;61291;52.524;13.422;2022-10-16T05:21:21;59.40;;;55.63;;
5710;SDS011;61291;52.524;13.422;2022-10-16T05:23:47;56.87;;;53.17;;
5710;SDS011;61291;52.524;13.422;2022-10-16T05:26:12;60.00;;;56.10;;
5710;SDS011;61291;52.524;13.422;2022-10-16T05:28:38;56.50;;;52.80;;
5710;SDS011;61291;52.524;13.422;2022-10-16T05:31:04;56.30;;;52.50;;
5710;SDS011;61291;52.524;13.422;2022-10-16T05:33:31;57.53;;;54.07;;
5710;SDS011;61291;52.524;13.422;2022-10-16T05:36:00;60.47;;;56.17;;
5710;SDS011;61291;52.524;13.422;2022-10-16T05:38:27;59.07;;;54.80;;
5710;SDS011;61291;52.524;13.422;2022-10-16T05:40:53;58.83;;;54.93;;
5710;SDS011;61291;52.524;13.422;2022-10-16T05:43:19;58.60;;;54.90;;
5710;SDS011;61291;52.524;13.422;2022-10-16T05:45:52;56.90;;;53.20;;
5710;SDS011;61291;52.524;13.422;2022-10-16T05:48:29;56.27;;;52.63;;
5710;SDS011;61291;52.524;13.422;2022-10-16T05:50:58;57.33;;;53.53;;
5710;SDS011;61291;52.524;13.422;2022-10-16T05:53:24;54.90;;;51.17;;
5710;SDS011;61291;52.524;13.422;2022-10-16T05:55:56;57.20;;;53.03;;
5710;SDS011;61291;52.524;13.422;2022-10-16T05:58:23;50.65;;;46.75;;
5710;SDS011;61291;52.524;13.422;2022-10-16T06:00:57;55.10;;;51.30;;
5710;SDS011;61291;52.524;13.422;2022-10-16T06:03:23;55.30;;;51.63;;
5710;SDS011;61291;52.524;13.422;2022-10-16T06:05:50;53.90;;;49.87;;
5710;SDS011;61291;52.524;13.422;2022-10-16T06:08:16;56.33;;;52.23;;
5710;SDS011;61291;52.524;13.422;2022-10-16T06:10:42;54.43;;;50.17;;
5710;SDS011;61291;52.524;13.422;2022-10-16T06:13:08;54.87;;;50.77;;
5710;SDS011;61291;52.524;13.422;2022-10-16T06:15:34;54.93;;;51.10;;
5710;SDS011;61291;52.524;13.422;2022-10-16T06:18:00;58.90;;;54.90;;
5710;SDS011;61291;52.524;13.422;2022-10-16T06:20:25;54.60;;;50.80;;
5710;SDS011;61291;52.524;13.422;2022-10-16T06:22:51;53.30;;;49.70;;
5710;SDS011;61291;52.524;13.422;2022-10-16T06:25:17;57.37;;;53.17;;
5710;SDS011;61291;52.524;13.422;2022-10-16T06:27:42;57.13;;;53.20;;
5710;SDS011;61291;52.524;13.422;2022-10-16T06:30:08;57.80;;;53.70;;
5710;SDS011;61291;52.524;13.422;2022-10-16T06:32:34;55.20;;;51.20;;
5710;SDS011;61291;52.524;13.422;2022-10-16T06:34:59;49.70;;;46.40;;
5710;SDS011;61291;52.524;13.422;2022-10-16T06:37:25;56.30;;;52.40;;
5710;SDS011;61291;52.524;13.422;2022-10-16T06:39:51;58.10;;;54.03;;
5710;SDS011;61291;52.524;13.422;2022-10-16T06:42:19;54.07;;;50.27;;
5710;SDS011;61291;52.524;13.422;2022-10-16T06:44:45;57.50;;;53.60;;
5710;SDS011;61291;52.524;13.422;2022-10-16T06:47:10;56.37;;;52.57;;
5710;SDS011;61291;52.524;13.422;2022-10-16T06:49:36;53.47;;;49.83;;
5710;SDS011;61291;52.524;13.422;2022-10-16T06:52:02;53.90;;;50.10;;
5710;SDS011;61291;52.524;13.422;2022-10-16T06:54:28;54.83;;;50.93;;
5710;SDS011;61291;52.524;13.422;2022-10-16T06:56:54;57.33;;;53.13;;
5710;SDS011;61291;52.524;13.422;2022-10-16T06:59:22;59.33;;;54.83;;
5710;SDS011;61291;52.524;13.422;2022-10-16T07:01:48;57.47;;;53.57;;
5710;SDS011;61291;52.524;13.422;2022-10-16T07:04:13;59.77;;;55.80;;
5710;SDS011;61291;52.524;13.422;2022-10-16T07:06:39;59.47;;;55.00;;
5710;SDS011;61291;52.524;13.422;2022-10-16T07:09:06;52.33;;;48.53;;
5710;SDS011;61291;52.524;13.422;2022-10-16T07:11:34;66.33;;;61.93;;
5710;SDS011;61291;52.524;13.422;2022-10-16T07:14:02;61.03;;;56.47;;
5710;SDS011;61291;52.524;13.422;2022-10-16T07:16:29;63.40;;;58.90;;
5710;SDS011;61291;52.524;13.422;2022-10-16T07:18:57;62.40;;;58.00;;
5710;SDS011;61291;52.524;13.422;2022-10-16T07:21:24;59.77;;;55.57;;
5710;SDS011;61291;52.524;13.422;2022-10-16T07:23:53;60.20;;;55.60;;
5710;SDS011;61291;52.524;13.422;2022-10-16T07:26:20;58.50;;;54.17;;
5710;SDS011;61291;52.524;13.422;2022-10-16T07:28:47;62.90;;;58.33;;
5710;SDS011;61291;52.524;13.422;2022-10-16T07:31:13;59.30;;;55.10;;
5710;SDS011;61291;52.524;13.422;2022-10-16T07:33:40;60.30;;;55.90;;
5710;SDS011;61291;52.524;13.422;2022-10-16T07:36:08;60.50;;;56.30;;
5710;SDS011;61291;52.524;13.422;2022-10-16T07:38:33;59.03;;;54.73;;
5710;SDS011;61291;52.524;13.422;2022-10-16T07:41:00;60.57;;;55.63;;
5710;SDS011;61291;52.524;13.422;2022-10-16T07:43:29;60.30;;;55.90;;
5710;SDS011;61291;52.524;13.422;2022-10-16T07:45:55;60.53;;;56.03;;
5710;SDS011;61291;52.524;13.422;2022-10-16T07:48:26;64.07;;;59.43;;
5710;SDS011;61291;52.524;13.422;2022-10-16T07:50:56;62.17;;;57.47;;
5710;SDS011;61291;52.524;13.422;2022-10-16T07:53:23;58.30;;;54.00;;
5710;SDS011;61291;52.524;13.422;2022-10-16T07:55:48;61.37;;;56.73;;
5710;SDS011;61291;52.524;13.422;2022-10-16T07:58:14;58.73;;;54.50;;
5710;SDS011;61291;52.524;13.422;2022-10-16T08:00:39;59.37;;;55.07;;
5710;SDS011;61291;52.524;13.422;2022-10-16T08:03:05;56.83;;;53.03;;
5710;SDS011;61291;52.524;13.422;2022-10-16T08:05:31;52.53;;;49.03;;
5710;SDS011;61291;52.524;13.422;2022-10-16T08:07:57;56.07;;;52.27;;
5710;SDS011;61291;52.524;13.422;2022-10-16T08:10:24;55.70;;;51.07;;
5710;SDS011;61291;52.524;13.422;2022-10-16T08:12:51;59.90;;;55.70;;
5710;SDS011;61291;52.524;13.422;2022-10-16T08:15:17;59.03;;;54.90;;
5710;SDS011;61291;52.524;13.422;2022-10-16T08:17:43;57.50;;;53.30;;
5710;SDS011;61291;52.524;13.422;2022-10-16T08:20:09;60.73;;;56.50;;
5710;SDS011;61291;52.524;13.422;2022-10-16T08:22:38;60.67;;;56.70;;
5710;SDS011;61291;52.524;13.422;2022-10-16T08:25:06;61.50;;;57.40;;
5710;SDS011;61291;52.524;13.422;2022-10-16T08:27:32;60.80;;;56.60;;
5710;SDS011;61291;52.524;13.422;2022-10-16T08:29:58;61.73;;;57.73;;
5710;SDS011;61291;52.524;13.422;2022-10-16T08:32:23;58.73;;;54.50;;
5710;SDS011;61291;52.524;13.422;2022-10-16T08:34:49;59.53;;;55.30;;
5710;SDS011;61291;52.524;13.422;2022-10-16T08:37:14;64.00;;;59.70;;
5710;SDS011;61291;52.524;13.422;2022-10-16T08:39:40;64.60;;;59.73;;
5710;SDS011;61291;52.524;13.422;2022-10-16T08:45:08;57.60;;;53.80;;
5710;SDS011;61291;52.524;13.422;2022-10-16T08:48:14;60.63;;;56.33;;
5710;SDS011;61291;52.524;13.422;2022-10-16T08:50:44;58.90;;;54.70;;
5710;SDS011;61291;52.524;13.422;2022-10-16T08:53:14;61.10;;;56.90;;
5710;SDS011;61291;52.524;13.422;2022-10-16T08:55:49;62.50;;;57.97;;
5710;SDS011;61291;52.524;13.422;2022-10-16T08:58:17;59.43;;;55.23;;
5710;SDS011;61291;52.524;13.422;2022-10-16T09:00:49;56.60;;;52.67;;
5710;SDS011;61291;52.524;13.422;2022-10-16T09:09:02;65.63;;;61.23;;
5710;SDS011;61291;52.524;13.422;2022-10-16T09:12:04;62.20;;;58.00;;
5710;SDS011;61291;52.524;13.422;2022-10-16T09:14:43;72.20;;;67.50;;
5710;SDS011;61291;52.524;13.422;2022-10-16T09:20:28;68.50;;;63.60;;
5710;SDS011;61291;52.524;13.422;2022-10-16T09:25:28;72.27;;;66.80;;
5710;SDS011;61291;52.524;13.422;2022-10-16T09:27:54;70.90;;;66.10;;
5710;SDS011;61291;52.524;13.422;2022-10-16T09:30:21;64.30;;;59.90;;
5710;SDS011;61291;52.524;13.422;2022-10-16T09:32:49;68.13;;;63.50;;
5710;SDS011;61291;52.524;13.422;2022-10-16T09:35:18;67.60;;;63.13;;
5710;SDS011;61291;52.524;13.422;2022-10-16T09:37:50;67.80;;;63.27;;
5710;SDS011;61291;52.524;13.422;2022-10-16T09:40:26;71.87;;;67.00;;
5710;SDS011;61291;52.524;13.422;2022-10-16T09:45:58;72.93;;;67.93;;
5710;SDS011;61291;52.524;13.422;2022-10-16T09:48:28;75.27;;;70.03;;
5710;SDS011;61291;52.524;13.422;2022-10-16T09:51:19;71.83;;;66.80;;
5710;SDS011;61291;52.524;13.422;2022-10-16T09:53:48;67.13;;;62.73;;
5710;SDS011;61291;52.524;13.422;2022-10-16T09:56:26;59.80;;;55.50;;
5710;SDS011;61291;52.524;13.422;2022-10-16T09:58:58;58.17;;;54.10;;
5710;SDS011;61291;52.524;13.422;2022-10-16T10:01:29;61.03;;;56.80;;
5710;SDS011;61291;52.524;13.422;2022-10-16T10:04:03;54.70;;;50.80;;
5710;SDS011;61291;52.524;13.422;2022-10-16T10:06:33;60.20;;;55.80;;
5710;SDS011;61291;52.524;13.422;2022-10-16T10:11:37;59.70;;;55.70;;
5710;SDS011;61291;52.524;13.422;2022-10-16T10:14:55;63.07;;;59.07;;
5710;SDS011;61291;52.524;13.422;2022-10-16T10:19:36;64.03;;;59.50;;
5710;SDS011;61291;52.524;13.422;2022-10-16T10:22:17;64.53;;;60.03;;
5710;SDS011;61291;52.524;13.422;2022-10-16T10:24:44;67.17;;;62.47;;
5710;SDS011;61291;52.524;13.422;2022-10-16T10:27:19;64.97;;;60.60;;
5710;SDS011;61291;52.524;13.422;2022-10-16T10:29:52;67.43;;;62.77;;
5710;SDS011;61291;52.524;13.422;2022-10-16T10:35:01;63.50;;;58.83;;
5710;SDS011;61291;52.524;13.422;2022-10-16T10:37:48;63.97;;;59.67;;
5710;SDS011;61291;52.524;13.422;2022-10-16T10:43:04;63.40;;;59.00;;
5710;SDS011;61291;52.524;13.422;2022-10-16T10:45:55;67.00;;;62.40;;
5710;SDS011;61291;52.524;13.422;2022-10-16T10:48:47;63.00;;;58.50;;
5710;SDS011;61291;52.524;13.422;2022-10-16T10:51:40;63.77;;;58.47;;
5710;SDS011;61291;52.524;13.422;2022-10-16T10:54:22;64.60;;;59.73;;
5710;SDS011;61291;52.524;13.422;2022-10-16T11:02:47;68.57;;;63.57;;
5710;SDS011;61291;52.524;13.422;2022-10-16T11:08:17;62.23;;;57.40;;
5710;SDS011;61291;52.524;13.422;2022-10-16T11:10:57;62.50;;;57.47;;
5710;SDS011;61291;52.524;13.422;2022-10-16T11:13:34;57.77;;;53.47;;
5710;SDS011;61291;52.524;13.422;2022-10-16T11:16:15;58.07;;;54.17;;
5710;SDS011;61291;52.524;13.422;2022-10-16T11:18:48;57.33;;;53.20;;
5710;SDS011;61291;52.524;13.422;2022-10-16T11:21:20;56.90;;;52.90;;
5710;SDS011;61291;52.524;13.422;2022-10-16T11:26:26;55.43;;;50.87;;
5710;SDS011;61291;52.524;13.422;2022-10-16T11:28:56;58.80;;;54.70;;
5710;SDS011;61291;52.524;13.422;2022-10-16T11:34:12;56.73;;;52.20;;
5710;SDS011;61291;52.524;13.422;2022-10-16T11:36:51;58.73;;;54.10;;
5710;SDS011;61291;52.524;13.422;2022-10-16T11:39:23;53.37;;;49.07;;
5710;SDS011;61291;52.524;13.422;2022-10-16T11:41:52;55.17;;;51.47;;
5710;SDS011;61291;52.524;13.422;2022-10-16T11:44:51;57.40;;;53.10;;
5710;SDS011;61291;52.524;13.422;2022-10-16T11:50:19;54.17;;;50.27;;
5710;SDS011;61291;52.524;13.422;2022-10-16T11:52:55;52.23;;;48.43;;
5710;SDS011;61291;52.524;13.422;2022-10-16T11:55:32;53.90;;;49.40;;
5710;SDS011;61291;52.524;13.422;2022-10-16T11:58:04;58.27;;;53.37;;
5710;SDS011;61291;52.524;13.422;2022-10-16T12:00:39;54.60;;;50.80;;
5710;SDS011;61291;52.524;13.422;2022-10-16T12:03:25;54.20;;;50.30;;
5710;SDS011;61291;52.524;13.422;2022-10-16T12:08:49;55.83;;;51.30;;
5710;SDS011;61291;52.524;13.422;2022-10-16T12:11:24;55.33;;;51.23;;
5710;SDS011;61291;52.524;13.422;2022-10-16T12:17:03;57.23;;;53.17;;
5710;SDS011;61291;52.524;13.422;2022-10-16T12:19:24;59.73;;;55.20;;
5710;SDS011;61291;52.524;13.422;2022-10-16T12:21:52;57.50;;;53.07;;
5710;SDS011;61291;52.524;13.422;2022-10-16T12:24:21;57.70;;;53.60;;
5710;SDS011;61291;52.524;13.422;2022-10-16T12:26:54;56.63;;;52.40;;
5710;SDS011;61291;52.524;13.422;2022-10-16T12:31:52;60.70;;;56.50;;
5710;SDS011;61291;52.524;13.422;2022-10-16T12:34:37;60.33;;;56.10;;
5710;SDS011;61291;52.524;13.422;2022-10-16T12:37:20;49.97;;;45.97;;
5710;SDS011;61291;52.524;13.422;2022-10-16T12:39:49;56.50;;;52.40;;
5710;SDS011;61291;52.524;13.422;2022-10-16T12:44:51;54.75;;;50.85;;
5710;SDS011;61291;52.524;13.422;2022-10-16T12:49:55;55.93;;;51.73;;
5710;SDS011;61291;52.524;13.422;2022-10-16T12:52:39;60.03;;;55.63;;
5710;SDS011;61291;52.524;13.422;2022-10-16T12:55:05;60.47;;;56.27;;
5710;SDS011;61291;52.524;13.422;2022-10-16T12:57:45;58.20;;;54.00;;
5710;SDS011;61291;52.524;13.422;2022-10-16T13:00:44;62.03;;;57.73;;
5710;SDS011;61291;52.524;13.422;2022-10-16T13:03:22;55.67;;;51.47;;
5710;SDS011;61291;52.524;13.422;2022-10-16T13:12:08;66.37;;;61.67;;
5710;SDS011;61291;52.524;13.422;2022-10-16T13:17:31;58.37;;;54.30;;
5710;SDS011;61291;52.524;13.422;2022-10-16T13:23:22;59.03;;;54.97;;
5710;SDS011;61291;52.524;13.422;2022-10-16T13:26:01;59.37;;;55.27;;
5710;SDS011;61291;52.524;13.422;2022-10-16T13:28:37;59.57;;;55.57;;
5710;SDS011;61291;52.524;13.422;2022-10-16T13:31:04;58.33;;;54.13;;
5710;SDS011;61291;52.524;13.422;2022-10-16T13:33:32;62.13;;;57.00;;
5710;SDS011;61291;52.524;13.422;2022-10-16T13:36:03;60.67;;;56.37;;
5710;SDS011;61291;52.524;13.422;2022-10-16T13:38:30;62.13;;;57.70;;
5710;SDS011;61291;52.524;13.422;2022-10-16T13:46:18;58.70;;;54.37;;
5710;SDS011;61291;52.524;13.422;2022-10-16T13:49:05;61.10;;;56.90;;
5710;SDS011;61291;52.524;13.422;2022-10-16T13:51:37;63.90;;;59.50;;
5710;SDS011;61291;52.524;13.422;2022-10-16T13:54:02;58.43;;;54.33;;
5710;SDS011;61291;52.524;13.422;2022-10-16T13:56:29;62.13;;;58.03;;
5710;SDS011;61291;52.524;13.422;2022-10-16T13:59:03;61.83;;;57.67;;
5710;SDS011;61291;52.524;13.422;2022-10-16T14:01:31;64.27;;;59.87;;
5710;SDS011;61291;52.524;13.422;2022-10-16T14:04:09;60.60;;;56.50;;
5710;SDS011;61291;52.524;13.422;2022-10-16T14:06:36;62.60;;;58.50;;
5710;SDS011;61291;52.524;13.422;2022-10-16T14:12:09;57.67;;;53.47;;
5710;SDS011;61291;52.524;13.422;2022-10-16T14:14:40;59.03;;;54.43;;
5710;SDS011;61291;52.524;13.422;2022-10-16T14:17:06;55.87;;;51.87;;
5710;SDS011;61291;52.524;13.422;2022-10-16T14:19:47;58.77;;;54.47;;
5710;SDS011;61291;52.524;13.422;2022-10-16T14:22:22;52.70;;;49.10;;
5710;SDS011;61291;52.524;13.422;2022-10-16T14:24:59;54.30;;;50.50;;
5710;SDS011;61291;52.524;13.422;2022-10-16T14:27:28;55.50;;;51.70;;
5710;SDS011;61291;52.524;13.422;2022-10-16T14:30:11;52.70;;;48.83;;
5710;SDS011;61291;52.524;13.422;2022-10-16T14:32:40;56.60;;;52.37;;
5710;SDS011;61291;52.524;13.422;2022-10-16T14:35:27;58.07;;;53.87;;
5710;SDS011;61291;52.524;13.422;2022-10-16T14:38:00;56.20;;;52.40;;
5710;SDS011;61291;52.524;13.422;2022-10-16T14:40:29;56.77;;;52.33;;
5710;SDS011;61291;52.524;13.422;2022-10-16T14:43:00;53.10;;;49.27;;
5710;SDS011;61291;52.524;13.422;2022-10-16T14:45:28;53.17;;;49.10;;
5710;SDS011;61291;52.524;13.422;2022-10-16T14:47:56;53.23;;;49.67;;
5710;SDS011;61291;52.524;13.422;2022-10-16T14:50:23;51.80;;;48.10;;
5710;SDS011;61291;52.524;13.422;2022-10-16T14:52:49;55.27;;;50.63;;
5710;SDS011;61291;52.524;13.422;2022-10-16T14:55:15;53.57;;;49.73;;
5710;SDS011;61291;52.524;13.422;2022-10-16T14:57:40;55.67;;;51.57;;
5710;SDS011;61291;52.524;13.422;2022-10-16T15:00:13;57.23;;;53.40;;
5710;SDS011;61291;52.524;13.422;2022-10-16T15:02:44;57.57;;;53.30;;
5710;SDS011;61291;52.524;13.422;2022-10-16T15:07:40;57.50;;;52.90;;
5710;SDS011;61291;52.524;13.422;2022-10-16T15:10:06;60.43;;;56.00;;
5710;SDS011;61291;52.524;13.422;2022-10-16T15:12:32;57.50;;;53.17;;
5710;SDS011;61291;52.524;13.422;2022-10-16T15:14:58;55.67;;;51.83;;
5710;SDS011;61291;52.524;13.422;2022-10-16T15:17:23;55.30;;;51.20;;
5710;SDS011;61291;52.524;13.422;2022-10-16T15:19:49;52.33;;;48.40;;
5710;SDS011;61291;52.524;13.422;2022-10-16T15:22:16;52.97;;;48.77;;
5710;SDS011;61291;52.524;13.422;2022-10-16T15:24:42;53.53;;;49.60;;
5710;SDS011;61291;52.524;13.422;2022-10-16T15:27:07;53.17;;;49.07;;
5710;SDS011;61291;52.524;13.422;2022-10-16T15:29:33;52.50;;;48.70;;
5710;SDS011;61291;52.524;13.422;2022-10-16T15:31:58;57.30;;;53.10;;
5710;SDS011;61291;52.524;13.422;2022-10-16T15:34:23;55.50;;;51.60;;
5710;SDS011;61291;52.524;13.422;2022-10-16T15:36:49;55.13;;;50.93;;
5710;SDS011;61291;52.524;13.422;2022-10-16T15:39:15;59.63;;;55.43;;
5710;SDS011;61291;52.524;13.422;2022-10-16T15:41:44;55.50;;;51.90;;
5710;SDS011;61291;52.524;13.422;2022-10-16T15:44:15;57.27;;;53.40;;
5710;SDS011;61291;52.524;13.422;2022-10-16T15:46:41;57.13;;;53.43;;
5710;SDS011;61291;52.524;13.422;2022-10-16T15:49:06;54.97;;;51.20;;
5710;SDS011;61291;52.524;13.422;2022-10-16T15:51:33;59.30;;;55.10;;
5710;SDS011;61291;52.524;13.422;2022-10-16T15:54:02;61.40;;;56.50;;
5710;SDS011;61291;52.524;13.422;2022-10-16T15:56:27;61.37;;;57.07;;
5710;SDS011;61291;52.524;13.422;2022-10-16T15:58:54;61.43;;;56.73;;
5710;SDS011;61291;52.524;13.422;2022-10-16T16:01:20;58.40;;;54.00;;
5710;SDS011;61291;52.524;13.422;2022-10-16T16:03:46;59.90;;;56.00;;
5710;SDS011;61291;52.524;13.422;2022-10-16T16:06:12;61.43;;;56.97;;
5710;SDS011;61291;52.524;13.422;2022-10-16T16:08:38;59.73;;;55.80;;